Aviston, Illinois
Current Conditions -  °F | °C
As of 5:58 AM on Friday 28 Nov 2014 (Local Time) from KBLV Reporting Station
Few Clouds Few Clouds  
Wind Chill: 16°   Ceiling: Unl
Heat Index: 23°   Visibility: 10mi
Dew Point: 22°   Wind: 6mph
Humidity: 97%   Direction: 120°ESE
Pressure: 30.32"   Gusts: NA
Location:  38.61°N, 89.61°W
Report Text: KBLV 281158Z AUTO 12005KT 10SM FEW130 M05/M05 A3032 RMK AO2 SLP277 T10491053 11041 21052 57025
Loading
Personal Weather Stations






























Interactive Weather Map New forecast layout! Learn more

10-Day Weather Forecast

Advertisements
Track Severe Weather on mobile